New Philadelphia, OH

12:19 AM EDT on October 22, 2014 (GMT -0400)
Lockport | Change Station
CLOSE
Current Station
Personal Weather Station
Location: New Philadelphia, OH
Elevation: 856 ft
Nearby Weather Stations

Elev 856 ft 40.46 °N, 81.43 °W | Updated 8 seconds ago

Overcast
Overcast
47.2 °F
Feels Like 47 °F
N
3.0
Wind Variable Wind from WNW
Gusts 5.0 mph

Today
High -- | Low -- °F
--% Chance of Precip.
Yesterday
High -- | Low -- °F
Precip. -- in
7:44 AM 6:35 PM
Waning Crescent, 3% visible
Pressure 30.09 in
Visibility 3.0 miles
Clouds Overcast 600 ft
Windchill 47 °F
Dew Point Not available.
Humidity Not available.
Rainfall 0.00 in
Snow Depth Not available.
UV 0 out of 12
Pollen .30 out of 12
Air Quality Not available.
Flu Activity Sporadic
SPECI KPHD 220406Z AUTO 32004KT 3SM BR OVC006 08/07 A3009 RMK AO2 CIG 004V009 T00830072

More Conditions Fewer Conditions

Pressure 30.09 in
Visibility 3.0 miles
Clouds Overcast 600 ft
Windchill 47 °F
Dew Point Not available.
Humidity Not available.
Rainfall 0.00 in
Snow Depth Not available.
UV 0 out of 12
Pollen .30 out of 12
Air Quality Not available.
Flu Activity Sporadic
SPECI KPHD 220406Z AUTO 32004KT 3SM BR OVC006 08/07 A3009 RMK AO2 CIG 004V009 T00830072

More Conditions Fewer Conditions

10-Day Weather Forecast

Almanac

Astronomy

Oct. 22, 2014 Rise Set
Actual Time 7:44 AM EDT 6:35 PM EDT
Civil Twilight 7:16 AM EDT 7:03 PM EDT
Nautical Twilight 6:44 AM EDT 7:35 PM EDT
Astronomical Twilight 6:13 AM EDT 8:06 PM EDT
Moon 6:24 AM EDT 6:01 PM EDT
Length of Visible Light 11h 46m
Length of Day
10h 51m
Tomorrow will be 2m 29s shorter.
Waning Crescent, 3% of the Moon is Illuminated
Today
Waning Crescent
Oct 23
New
Oct 30
First Quarter
Nov 6
Full
Nov 14
Last Quarter

Today's Extremes

State Highs State Lows

Community

WunderPhotos

Upload Photos

1,763,879 photos uploaded!

Nearby

Snow Depth

Station Depth Elevation
No new snow has been reported.

Earthquake Activity

City Distance Mag. Time & Date
No recent earthquake activity has been reported nearby.
Minimum magnitude displayed is 2.5.

Coastal Water Temperatures

Place Temperature
No Stations Reporting

Nearby Weather Stations